createdAt,value
2022-11-19T00:00:56.911Z,12.13
2022-11-19T00:04:00.235Z,14.27
2022-11-19T00:07:03.657Z,11.93
2022-11-19T00:10:07.243Z,7.85
2022-11-19T00:13:10.642Z,11.88
2022-11-19T00:16:15.680Z,4.40
2022-11-19T00:19:18.924Z,8.18
2022-11-19T00:22:22.187Z,5.63
2022-11-19T00:25:28.183Z,13.27
2022-11-19T00:28:31.426Z,6.60
2022-11-19T00:31:34.696Z,28.27
2022-11-19T00:34:37.899Z,13.77
2022-11-19T00:37:41.684Z,16.80
2022-11-19T00:40:44.958Z,42.33
2022-11-19T00:43:48.644Z,25.50
2022-11-19T00:46:52.282Z,30.90
2022-11-19T00:49:55.813Z,19.50
2022-11-19T00:53:00.204Z,14.25
2022-11-19T00:56:05.224Z,9.82
2022-11-19T00:59:08.750Z,6.13
2022-11-19T01:02:12.087Z,11.18
2022-11-19T01:05:15.652Z,9.18
2022-11-19T01:08:19.592Z,5.70
2022-11-19T01:11:29.007Z,9.95
2022-11-19T01:14:32.210Z,2.70
2022-11-19T01:17:35.469Z,9.80
2022-11-19T01:20:38.921Z,24.25
2022-11-19T01:23:43.535Z,9.20
2022-11-19T01:26:46.933Z,5.45
2022-11-19T01:29:50.111Z,3.05
2022-11-19T01:32:54.949Z,5.18
2022-11-19T01:36:04.926Z,9.20
2022-11-19T01:39:10.232Z,8.32
2022-11-19T01:42:52.436Z,8.40
2022-11-19T01:45:55.997Z,5.57
2022-11-19T01:49:17.701Z,8.27
2022-11-19T01:52:21.344Z,2.92
2022-11-19T01:55:25.298Z,7.93
2022-11-19T01:58:28.755Z,5.35
2022-11-19T02:01:33.125Z,5.65
2022-11-19T02:04:37.171Z,8.45
2022-11-19T02:07:46.031Z,6.85
2022-11-19T02:11:14.874Z,1.67
2022-11-19T02:14:28.335Z,4.65
2022-11-19T02:17:51.142Z,7.03
2022-11-19T02:21:28.498Z,2.47
2022-11-19T02:24:46.741Z,14.00
2022-11-19T02:28:19.233Z,10.75
2022-11-19T02:31:30.880Z,5.57
2022-11-19T02:34:40.454Z,4.00
2022-11-19T02:37:43.656Z,14.55
2022-11-19T02:40:57.433Z,3.90
2022-11-19T02:44:22.717Z,5.93
2022-11-19T02:47:34.568Z,3.13
2022-11-19T02:50:44.789Z,7.00
2022-11-19T02:53:51.908Z,5.70
2022-11-19T02:56:59.501Z,3.50
2022-11-19T03:00:24.098Z,12.90
2022-11-19T03:03:46.099Z,5.40
2022-11-19T03:06:49.624Z,3.13
2022-11-19T03:10:03.991Z,7.45
2022-11-19T03:13:43.827Z,6.85
2022-11-19T03:17:03.944Z,7.20
2022-11-19T03:20:14.565Z,6.93
2022-11-19T03:23:36.958Z,6.40
2022-11-19T03:26:50.270Z,7.55
2022-11-19T03:29:58.513Z,7.13
2022-11-19T03:33:06.397Z,3.33
2022-11-19T03:36:15.294Z,2.88
2022-11-19T03:39:21.721Z,2.65
2022-11-19T03:42:27.841Z,5.32
2022-11-19T03:45:36.604Z,3.38
2022-11-19T03:48:41.692Z,5.47
2022-11-19T03:52:06.876Z,10.27
2022-11-19T03:55:10.829Z,5.85
2022-11-19T03:58:14.402Z,2.25
2022-11-19T04:01:17.911Z,8.48
2022-11-19T04:04:39.435Z,2.67
2022-11-19T04:07:42.757Z,4.50
2022-11-19T04:10:46.029Z,3.10
2022-11-19T04:13:49.123Z,5.75
2022-11-19T04:16:52.335Z,3.63
2022-11-19T04:19:55.498Z,10.00
2022-11-19T04:22:59.015Z,4.20
2022-11-19T04:26:02.359Z,4.05
2022-11-19T04:29:05.953Z,2.53
2022-11-19T04:32:10.791Z,5.15
2022-11-19T04:35:14.743Z,3.65
2022-11-19T04:38:17.916Z,2.40
2022-11-19T04:41:21.095Z,4.43
2022-11-19T04:44:39.104Z,1.65
2022-11-19T04:47:42.256Z,1.80
2022-11-19T04:50:45.753Z,3.20
2022-11-19T04:53:48.953Z,1.58
2022-11-19T04:56:52.214Z,1.65
2022-11-19T04:59:55.502Z,7.13
2022-11-19T05:02:58.852Z,0.88
2022-11-19T05:06:02.277Z,17.20
2022-11-19T05:09:08.092Z,2.65
2022-11-19T05:12:11.415Z,4.75
2022-11-19T05:15:14.821Z,1.95
2022-11-19T05:18:18.180Z,3.67
2022-11-19T05:21:21.557Z,89.70
2022-11-19T05:24:27.133Z,2.53
2022-11-19T05:27:30.525Z,1.45
2022-11-19T05:30:33.913Z,6.40
2022-11-19T05:33:37.332Z,3.00
2022-11-19T05:36:40.841Z,5.95
2022-11-19T05:39:44.545Z,12.93
2022-11-19T05:42:50.422Z,2.80
2022-11-19T05:45:54.009Z,2.70
2022-11-19T05:48:57.252Z,4.15
2022-11-19T05:52:00.508Z,5.38
2022-11-19T05:55:04.225Z,3.53
2022-11-19T05:58:07.496Z,2.67
2022-11-19T06:01:13.116Z,1.65
2022-11-19T06:04:16.660Z,8.00
2022-11-19T06:07:20.079Z,3.72
2022-11-19T06:10:23.449Z,3.08
2022-11-19T06:13:26.653Z,3.15
2022-11-19T06:16:30.112Z,8.63
2022-11-19T06:19:33.447Z,4.75
2022-11-19T06:22:37.513Z,1.52
2022-11-19T06:25:41.066Z,10.00
2022-11-19T06:28:47.359Z,4.32
2022-11-19T06:31:50.503Z,2.28
2022-11-19T06:34:53.891Z,7.05
2022-11-19T06:37:57.053Z,3.90
2022-11-19T06:41:00.366Z,7.35
2022-11-19T06:44:04.480Z,6.18
2022-11-19T06:47:08.010Z,3.35
2022-11-19T06:50:11.992Z,4.18
2022-11-19T06:53:15.440Z,4.03
2022-11-19T06:56:18.814Z,4.78
2022-11-19T06:59:22.327Z,5.15
2022-11-19T07:02:31.370Z,14.20
2022-11-19T07:05:39.588Z,3.58
2022-11-19T07:08:49.425Z,3.90
2022-11-19T07:11:57.105Z,10.63
2022-11-19T07:15:04.266Z,3.78
2022-11-19T07:18:08.150Z,4.20
2022-11-19T07:21:11.498Z,7.82
2022-11-19T07:24:18.492Z,6.25
2022-11-19T07:27:21.848Z,5.68
2022-11-19T07:30:36.930Z,4.72
2022-11-19T07:33:40.890Z,8.35
2022-11-19T07:36:44.793Z,10.18
2022-11-19T07:39:48.124Z,6.82
2022-11-19T07:42:53.869Z,10.23
2022-11-19T07:45:57.004Z,4.35
2022-11-19T07:49:00.708Z,9.43
2022-11-19T07:52:04.115Z,4.88
2022-11-19T07:55:08.332Z,5.95
2022-11-19T07:58:11.610Z,5.75
2022-11-19T08:01:20.659Z,13.48
2022-11-19T08:04:24.207Z,12.60
2022-11-19T08:07:27.474Z,7.53
2022-11-19T08:10:31.984Z,3.30
2022-11-19T08:13:41.683Z,9.45
2022-11-19T08:17:03.235Z,6.90
2022-11-19T08:20:07.122Z,1.08
2022-11-19T08:23:12.027Z,7.22
2022-11-19T08:26:15.633Z,4.30
2022-11-19T08:29:26.496Z,3.03
2022-11-19T08:32:29.875Z,4.53
2022-11-19T08:35:33.160Z,8.80
2022-11-19T08:38:39.649Z,8.65
2022-11-19T08:42:01.366Z,23.15
2022-11-19T08:45:06.291Z,15.30
2022-11-19T08:48:11.095Z,20.90
2022-11-19T08:51:15.574Z,11.68
2022-11-19T08:54:19.093Z,25.08
2022-11-19T08:57:22.576Z,21.35
2022-11-19T09:00:25.979Z,18.42
2022-11-19T09:03:29.397Z,27.38
2022-11-19T09:06:35.780Z,27.55
2022-11-19T09:09:41.448Z,32.55
2022-11-19T09:12:44.641Z,25.73
2022-11-19T09:15:52.635Z,25.60
2022-11-19T09:18:56.079Z,18.33
2022-11-19T09:22:19.651Z,41.42
2022-11-19T09:25:23.063Z,26.83
2022-11-19T09:28:27.670Z,37.95
2022-11-19T09:31:30.964Z,22.77
2022-11-19T09:34:39.001Z,41.63
2022-11-19T09:37:47.864Z,29.33
2022-11-19T09:41:02.419Z,23.55
2022-11-19T09:44:41.038Z,29.02
2022-11-19T09:48:35.290Z,26.77
2022-11-19T09:51:47.442Z,19.63
2022-11-19T09:54:58.970Z,33.40
2022-11-19T09:58:09.033Z,21.73
2022-11-19T10:01:18.167Z,27.45
2022-11-19T10:04:34.202Z,25.13
2022-11-19T10:08:04.365Z,21.13
2022-11-19T10:11:14.000Z,15.23
2022-11-19T10:15:10.424Z,23.30
2022-11-19T10:18:22.894Z,34.13
2022-11-19T10:21:34.743Z,29.08
2022-11-19T10:24:44.740Z,19.85
2022-11-19T10:27:55.699Z,25.30
2022-11-19T10:31:17.325Z,40.60
2022-11-19T10:34:34.826Z,38.95
2022-11-19T10:37:48.670Z,38.47
2022-11-19T10:41:00.870Z,31.75
2022-11-19T10:44:42.693Z,32.45
2022-11-19T10:48:09.085Z,41.55
2022-11-19T10:51:35.600Z,27.58
2022-11-19T10:54:53.686Z,35.58
2022-11-19T10:58:18.082Z,24.80
2022-11-19T11:01:33.375Z,27.05
2022-11-19T11:04:56.750Z,26.30
2022-11-19T11:08:01.940Z,22.15
2022-11-19T11:11:05.398Z,21.30
2022-11-19T11:14:30.752Z,14.93
2022-11-19T11:17:35.860Z,22.38
2022-11-19T11:20:49.739Z,26.58
2022-11-19T11:23:55.322Z,25.23
2022-11-19T11:27:19.104Z,32.58
2022-11-19T11:30:22.268Z,41.85
2022-11-19T11:33:42.767Z,35.80
2022-11-19T11:36:46.203Z,26.60
2022-11-19T11:39:59.791Z,30.70
2022-11-19T11:43:04.914Z,32.75
2022-11-19T11:46:11.300Z,23.83
2022-11-19T11:49:38.352Z,34.72
2022-11-19T11:52:54.702Z,44.30
2022-11-19T11:56:03.845Z,12.95
2022-11-19T11:59:33.026Z,35.67
2022-11-19T12:02:36.840Z,75.15
2022-11-19T12:05:52.234Z,69.63
2022-11-19T12:09:08.587Z,69.38
2022-11-19T12:12:35.563Z,84.72
2022-11-19T12:16:11.506Z,100.57
2022-11-19T12:19:17.892Z,146.82
2022-11-19T12:22:39.674Z,116.78
2022-11-19T12:26:14.586Z,72.32
2022-11-19T12:29:48.046Z,109.07
2022-11-19T12:33:16.370Z,78.78
2022-11-19T12:36:57.671Z,41.55
2022-11-19T12:40:38.895Z,64.88
2022-11-19T12:43:51.677Z,59.33
2022-11-19T12:46:59.301Z,46.42
2022-11-19T12:50:37.753Z,36.63
2022-11-19T12:57:54.570Z,31.40
2022-11-19T13:01:05.596Z,42.67
2022-11-19T13:04:23.444Z,32.88
2022-11-19T13:07:49.701Z,44.65
2022-11-19T13:11:18.616Z,49.13
2022-11-19T13:14:27.350Z,30.52
2022-11-19T13:17:34.801Z,36.10
2022-11-19T13:20:54.788Z,22.50
2022-11-19T13:24:04.105Z,23.20
2022-11-19T13:27:22.760Z,18.88
2022-11-19T13:30:32.760Z,34.33
2022-11-19T13:34:18.112Z,26.45
2022-11-19T13:37:32.691Z,20.92
2022-11-19T13:40:35.934Z,12.95
2022-11-19T13:43:57.533Z,18.98
2022-11-19T13:47:24.976Z,31.45
2022-11-19T13:50:41.951Z,21.15
2022-11-19T13:54:54.663Z,42.28
2022-11-19T14:03:11.513Z,40.10
2022-11-19T14:16:12.729Z,27.40
2022-11-19T14:19:37.384Z,43.55
2022-11-19T14:23:13.256Z,33.42
2022-11-19T14:26:41.445Z,37.50
2022-11-19T14:29:44.692Z,40.22
2022-11-19T14:33:32.168Z,30.60
2022-11-19T14:36:58.530Z,40.10
2022-11-19T14:43:35.871Z,40.75
2022-11-19T14:46:58.237Z,23.23
2022-11-19T14:50:03.955Z,31.70
2022-11-19T14:53:18.902Z,20.55
2022-11-19T14:56:24.309Z,17.40
2022-11-19T14:59:32.253Z,19.58
2022-11-19T15:02:42.568Z,18.40
2022-11-19T15:05:48.563Z,22.98
2022-11-19T15:08:54.078Z,27.40
2022-11-19T15:11:57.213Z,22.50
2022-11-19T15:15:20.176Z,20.05
2022-11-19T15:18:47.261Z,17.35
2022-11-19T15:22:23.080Z,18.58
2022-11-19T15:25:38.729Z,25.08
2022-11-19T15:33:43.326Z,30.15
2022-11-19T15:36:49.936Z,22.25
2022-11-19T15:50:51.179Z,16.88
2022-11-19T15:54:03.358Z,21.15
2022-11-19T15:57:22.115Z,18.27
2022-11-19T16:00:25.780Z,18.13
2022-11-19T16:03:32.497Z,13.38
2022-11-19T16:06:38.260Z,17.73
2022-11-19T16:09:44.595Z,13.43
2022-11-19T16:13:13.842Z,15.80
2022-11-19T16:16:59.965Z,30.00
2022-11-19T16:20:11.939Z,13.25
2022-11-19T16:23:24.146Z,19.45
2022-11-19T16:26:28.169Z,20.13
2022-11-19T16:29:36.753Z,17.10
2022-11-19T16:59:05.015Z,14.68
2022-11-19T17:02:18.545Z,17.05
2022-11-19T17:05:25.613Z,29.65
2022-11-19T17:08:31.130Z,23.80
2022-11-19T17:12:00.300Z,27.50
2022-11-19T17:15:39.135Z,23.90
2022-11-19T17:18:43.306Z,18.88
2022-11-19T17:22:03.200Z,26.92
2022-11-19T17:25:06.948Z,14.30
2022-11-19T17:38:30.763Z,25.08
2022-11-19T17:41:52.708Z,13.18
2022-11-19T17:44:56.022Z,16.73
2022-11-19T17:47:59.241Z,27.45
2022-11-19T17:51:02.919Z,12.18
2022-11-19T17:54:10.572Z,27.42
2022-11-19T17:57:14.021Z,9.23
2022-11-19T18:00:17.431Z,13.32
2022-11-19T18:03:20.626Z,17.08
2022-11-19T18:06:23.911Z,10.30
2022-11-19T18:09:32.234Z,18.10
2022-11-19T18:12:37.964Z,25.35
2022-11-19T18:15:41.558Z,13.82
2022-11-19T18:18:45.072Z,12.27
2022-11-19T18:21:48.396Z,16.77
2022-11-19T18:24:53.110Z,12.48
2022-11-19T18:27:56.306Z,9.60
2022-11-19T18:30:59.703Z,14.98
2022-11-19T18:34:02.964Z,9.63
2022-11-19T18:37:06.176Z,8.02
2022-11-19T18:40:10.254Z,7.30
2022-11-19T18:43:34.086Z,4.55
2022-11-19T18:46:39.440Z,4.78
2022-11-19T18:49:44.055Z,3.70
2022-11-19T18:52:47.517Z,5.35
2022-11-19T18:55:50.831Z,3.67
2022-11-19T19:24:21.369Z,4.18
2022-11-19T19:27:24.503Z,4.13
2022-11-19T19:35:39.445Z,1.55
2022-11-19T19:38:42.871Z,7.03
2022-11-19T19:49:09.530Z,2.53
2022-11-19T19:52:12.729Z,4.22
2022-11-19T19:55:15.994Z,9.45
2022-11-19T19:58:19.682Z,4.88
2022-11-19T20:01:27.725Z,3.08
2022-11-19T20:09:32.808Z,2.67
2022-11-19T20:12:55.212Z,4.13
2022-11-19T20:16:05.148Z,4.47
2022-11-19T20:19:13.112Z,5.13
2022-11-19T20:23:07.112Z,5.70
2022-11-19T20:26:17.972Z,6.07
2022-11-19T20:29:22.739Z,6.38
2022-11-19T20:37:21.534Z,5.68
2022-11-19T20:40:24.723Z,5.88
2022-11-19T20:43:52.592Z,4.13
2022-11-19T20:46:59.238Z,5.18
2022-11-19T20:50:02.510Z,3.13
2022-11-19T20:53:05.684Z,4.40
2022-11-19T20:56:09.562Z,2.22
2022-11-19T20:59:14.086Z,2.92
2022-11-19T21:02:17.451Z,4.68
2022-11-19T21:05:21.813Z,4.55
2022-11-19T21:08:26.583Z,5.13
2022-11-19T21:11:35.012Z,2.28
2022-11-19T21:14:38.855Z,2.72
2022-11-19T21:17:41.977Z,3.22
2022-11-19T21:20:45.185Z,3.30
2022-11-19T21:23:48.719Z,9.05
2022-11-19T21:26:51.878Z,4.78
2022-11-19T21:29:55.037Z,5.40
2022-11-19T21:32:58.203Z,3.55
2022-11-19T21:36:04.953Z,4.30
2022-11-19T21:39:08.280Z,3.72
2022-11-19T21:42:12.282Z,8.27
2022-11-19T21:45:15.512Z,4.30
2022-11-19T21:48:18.985Z,3.58
2022-11-19T21:51:24.831Z,8.10
2022-11-19T21:54:28.258Z,7.97
2022-11-19T21:57:31.415Z,6.55
2022-11-19T22:00:35.543Z,3.60
2022-11-19T22:03:38.757Z,5.65
2022-11-19T22:06:42.925Z,7.72
2022-11-19T22:09:47.383Z,9.25
2022-11-19T22:12:50.632Z,11.77
2022-11-19T22:16:03.100Z,4.05
2022-11-19T22:19:07.013Z,10.05
2022-11-19T22:22:10.534Z,8.98
2022-11-19T22:25:14.493Z,21.13
2022-11-19T22:28:17.602Z,10.70
2022-11-19T22:31:20.823Z,14.23
2022-11-19T22:34:23.996Z,33.08
2022-11-19T22:37:27.193Z,24.38
2022-11-19T22:40:30.878Z,14.48
2022-11-19T22:43:35.985Z,27.58
2022-11-19T22:46:39.242Z,3.72
2022-11-19T22:49:42.420Z,18.02
2022-11-19T22:52:45.522Z,33.13
2022-11-19T22:55:48.630Z,5.78
2022-11-19T22:58:53.306Z,22.48
2022-11-19T23:01:56.473Z,15.98
2022-11-19T23:04:59.571Z,22.58
2022-11-19T23:08:04.600Z,14.13
2022-11-19T23:11:08.834Z,20.15
2022-11-19T23:14:14.668Z,24.00
2022-11-19T23:17:17.887Z,25.13
2022-11-19T23:20:21.021Z,19.63
2022-11-19T23:23:24.525Z,16.60
2022-11-19T23:26:29.581Z,7.22
2022-11-19T23:29:32.719Z,28.60
2022-11-19T23:32:35.885Z,18.77
2022-11-19T23:35:39.045Z,13.65
2022-11-19T23:38:42.717Z,8.52
2022-11-19T23:41:46.479Z,16.40
2022-11-19T23:44:52.907Z,17.20
2022-11-19T23:47:56.314Z,19.52
2022-11-19T23:51:03.828Z,16.63
2022-11-19T23:54:07.513Z,17.05
2022-11-19T23:57:10.822Z,21.13
